createdAt,value
2017-05-31T00:00:45.916Z,1009.64
2017-05-31T00:01:55.254Z,1009.66
2017-05-31T00:03:04.384Z,1009.68
2017-05-31T00:04:13.350Z,1009.71
2017-05-31T00:05:22.310Z,1009.68
2017-05-31T00:06:31.474Z,1009.72
2017-05-31T00:07:40.740Z,1009.68
2017-05-31T00:08:49.723Z,1009.68
2017-05-31T00:09:58.777Z,1009.65
2017-05-31T00:11:07.737Z,1009.67
2017-05-31T00:12:16.696Z,1009.68
2017-05-31T00:13:25.956Z,1009.72
2017-05-31T00:14:35.462Z,1009.73
2017-05-31T00:15:44.515Z,1009.71
2017-05-31T00:16:53.484Z,1009.7
2017-05-31T00:18:02.446Z,1009.71
2017-05-31T00:19:11.706Z,1009.71
2017-05-31T00:20:20.665Z,1009.73
2017-05-31T00:21:29.966Z,1009.75
2017-05-31T00:22:38.924Z,1009.72
2017-05-31T00:23:47.971Z,1009.74
2017-05-31T00:24:57.255Z,1009.75
2017-05-31T00:26:06.301Z,1009.77
2017-05-31T00:27:15.263Z,1009.81
2017-05-31T00:28:24.230Z,1009.84
2017-05-31T00:29:33.524Z,1009.8
2017-05-31T00:30:42.820Z,1009.81
2017-05-31T00:31:51.785Z,1009.8
2017-05-31T00:33:00.746Z,1009.77
2017-05-31T00:34:09.704Z,1009.75
2017-05-31T00:35:18.668Z,1009.69
2017-05-31T00:36:27.924Z,1009.69
2017-05-31T00:37:36.884Z,1009.72
2017-05-31T00:38:45.852Z,1009.71
2017-05-31T00:39:54.819Z,1009.72
2017-05-31T00:41:03.862Z,1009.69
2017-05-31T00:42:13.074Z,1009.73
2017-05-31T00:43:22.044Z,1009.73
2017-05-31T00:44:31.005Z,1009.73
2017-05-31T00:45:39.966Z,1009.74
2017-05-31T00:46:48.920Z,1009.76
2017-05-31T00:47:58.186Z,1009.71
2017-05-31T00:49:07.148Z,1009.77
2017-05-31T00:50:16.106Z,1009.76
2017-05-31T00:51:25.161Z,1009.76
2017-05-31T00:52:34.129Z,1009.8
2017-05-31T00:53:43.667Z,1009.79
2017-05-31T00:54:52.627Z,1009.73
2017-05-31T00:56:01.595Z,1009.74
2017-05-31T00:57:10.553Z,1009.76
2017-05-31T00:58:19.515Z,1009.81
2017-05-31T00:59:28.729Z,1009.81
2017-05-31T01:00:37.693Z,1009.82
2017-05-31T01:01:46.652Z,1009.8
2017-05-31T01:02:55.674Z,1009.85
2017-05-31T01:04:04.643Z,1009.84
2017-05-31T01:05:13.858Z,1009.88
2017-05-31T01:06:22.818Z,1009.88
2017-05-31T01:07:31.786Z,1009.85
2017-05-31T01:08:40.744Z,1009.8
2017-05-31T01:09:49.704Z,1009.8
2017-05-31T01:10:58.914Z,1009.75
2017-05-31T01:12:07.884Z,1009.79
2017-05-31T01:13:16.848Z,1009.75
2017-05-31T01:14:25.807Z,1009.73
2017-05-31T01:15:34.806Z,1009.78
2017-05-31T01:16:44.064Z,1009.74
2017-05-31T01:17:53.027Z,1009.77
2017-05-31T01:19:01.998Z,1009.79
2017-05-31T01:20:10.960Z,1009.78
2017-05-31T01:21:19.917Z,1009.77
2017-05-31T01:22:29.180Z,1009.78
2017-05-31T01:23:38.143Z,1009.81
2017-05-31T01:24:47.101Z,1009.84
2017-05-31T01:25:56.068Z,1009.86
2017-05-31T01:27:05.119Z,1009.86
2017-05-31T01:28:14.330Z,1009.86
2017-05-31T01:29:23.295Z,1009.88
2017-05-31T01:30:32.350Z,1009.88
2017-05-31T01:31:41.317Z,1009.89
2017-05-31T01:32:50.275Z,1009.86
2017-05-31T01:33:59.482Z,1009.88
2017-05-31T01:35:08.465Z,1009.87
2017-05-31T01:36:17.425Z,1009.86
2017-05-31T01:37:26.394Z,1009.88
2017-05-31T01:38:35.358Z,1009.85
2017-05-31T01:39:44.567Z,1009.91
2017-05-31T01:40:53.527Z,1009.92
2017-05-31T01:42:02.491Z,1009.92
2017-05-31T01:43:11.448Z,1009.92
2017-05-31T01:44:20.409Z,1009.87
2017-05-31T01:45:29.625Z,1009.88
2017-05-31T01:46:38.582Z,1009.88
2017-05-31T01:47:47.867Z,1009.87
2017-05-31T01:48:56.830Z,1009.88
2017-05-31T01:50:05.794Z,1009.92
2017-05-31T01:51:15.330Z,1009.9
2017-05-31T01:52:24.380Z,1009.99
2017-05-31T01:53:33.344Z,1009.98
2017-05-31T01:54:42.302Z,1010.04
2017-05-31T01:55:51.263Z,1010.03
2017-05-31T01:57:00.472Z,1010.08
2017-05-31T01:58:09.439Z,1010.13
2017-05-31T01:59:18.399Z,1010.12
2017-05-31T02:00:27.699Z,1010.13
2017-05-31T02:01:36.657Z,1010.08
2017-05-31T02:02:45.956Z,1010.13
2017-05-31T02:03:54.924Z,1010.12
2017-05-31T02:05:03.886Z,1010.11
2017-05-31T02:06:12.849Z,1010.13
2017-05-31T02:07:21.811Z,1010.08
2017-05-31T02:08:31.035Z,1010.08
2017-05-31T02:09:39.994Z,1010.1
2017-05-31T02:10:48.954Z,1010.11
2017-05-31T02:11:57.915Z,1010.16
2017-05-31T02:13:06.872Z,1010.11
2017-05-31T02:14:16.093Z,1010.14
2017-05-31T02:15:25.059Z,1010.15
2017-05-31T02:16:34.354Z,1010.17
2017-05-31T02:17:43.315Z,1010.19
2017-05-31T02:18:52.276Z,1010.17
2017-05-31T02:20:01.493Z,1010.16
2017-05-31T02:21:10.544Z,1010.12
2017-05-31T02:22:19.507Z,1010.16
2017-05-31T02:23:28.472Z,1010.18
2017-05-31T02:24:37.433Z,1010.17
2017-05-31T02:25:46.650Z,1010.16
2017-05-31T02:26:55.640Z,1010.21
2017-05-31T02:28:04.600Z,1010.21
2017-05-31T02:29:13.557Z,1010.19
2017-05-31T02:30:22.842Z,1010.21
2017-05-31T02:31:32.396Z,1010.19
2017-05-31T02:32:41.359Z,1010.2
2017-05-31T02:33:50.319Z,1010.18
2017-05-31T02:34:59.278Z,1010.21
2017-05-31T02:36:08.244Z,1010.23
2017-05-31T02:37:17.458Z,1010.21
2017-05-31T02:38:26.515Z,1010.22
2017-05-31T02:39:35.475Z,1010.19
2017-05-31T02:40:44.434Z,1010.21
2017-05-31T02:41:53.489Z,1010.24
2017-05-31T02:43:02.697Z,1010.25
2017-05-31T02:44:11.653Z,1010.22
2017-05-31T02:45:20.621Z,1010.32
2017-05-31T02:46:29.586Z,1010.26
2017-05-31T02:47:38.645Z,1010.33
2017-05-31T02:48:47.860Z,1010.3
2017-05-31T02:49:56.823Z,1010.32
2017-05-31T02:51:05.876Z,1010.37
2017-05-31T02:52:14.839Z,1010.35
2017-05-31T02:53:23.888Z,1010.38
2017-05-31T02:54:33.103Z,1010.37
2017-05-31T02:55:42.128Z,1010.37
2017-05-31T02:56:51.091Z,1010.36
2017-05-31T02:58:00.049Z,1010.41
2017-05-31T02:59:09.007Z,1010.35
2017-05-31T03:00:18.220Z,1010.4
2017-05-31T03:01:27.191Z,1010.46
2017-05-31T03:02:36.477Z,1010.44
2017-05-31T03:03:45.444Z,1010.5
2017-05-31T03:04:54.406Z,1010.48
2017-05-31T03:06:03.612Z,1010.51
2017-05-31T03:07:12.582Z,1010.51
2017-05-31T03:08:21.552Z,1010.46
2017-05-31T03:09:30.513Z,1010.51
2017-05-31T03:10:39.482Z,1010.49
2017-05-31T03:11:48.741Z,1010.52
2017-05-31T03:12:57.705Z,1010.54
2017-05-31T03:14:06.665Z,1010.49
2017-05-31T03:15:15.622Z,1010.49
2017-05-31T03:16:24.586Z,1010.55
2017-05-31T03:17:33.851Z,1010.52
2017-05-31T03:18:42.811Z,1010.55
2017-05-31T03:19:51.772Z,1010.56
2017-05-31T03:21:01.057Z,1010.53
2017-05-31T03:22:10.026Z,1010.52
2017-05-31T03:23:19.235Z,1010.54
2017-05-31T03:24:28.199Z,1010.55
2017-05-31T03:25:37.162Z,1010.61
2017-05-31T03:26:46.149Z,1010.56
2017-05-31T03:27:55.107Z,1010.61
2017-05-31T03:29:04.364Z,1010.56
2017-05-31T03:30:13.320Z,1010.63
2017-05-31T03:31:22.285Z,1010.69
2017-05-31T03:32:31.252Z,1010.66
2017-05-31T03:33:40.532Z,1010.63
2017-05-31T03:34:49.746Z,1010.66
2017-05-31T03:35:58.711Z,1010.7
2017-05-31T03:37:07.672Z,1010.7
2017-05-31T03:38:16.632Z,1010.75
2017-05-31T03:39:25.599Z,1010.73
2017-05-31T03:40:34.812Z,1010.78
2017-05-31T03:41:44.099Z,1010.81
2017-05-31T03:42:53.060Z,1010.8
2017-05-31T03:44:02.022Z,1010.82
2017-05-31T03:45:10.978Z,1010.83
2017-05-31T03:46:20.193Z,1010.8
2017-05-31T03:47:29.246Z,1010.81
2017-05-31T03:48:38.207Z,1010.82
2017-05-31T03:49:47.169Z,1010.81
2017-05-31T03:50:56.132Z,1010.87
2017-05-31T03:52:05.347Z,1010.91
2017-05-31T03:53:14.307Z,1010.86
2017-05-31T03:54:23.267Z,1010.93
2017-05-31T03:55:32.230Z,1010.93
2017-05-31T03:56:41.279Z,1010.86
2017-05-31T03:57:50.541Z,1010.98
2017-05-31T03:58:59.509Z,1010.89
2017-05-31T04:00:08.472Z,1010.91
2017-05-31T04:01:17.433Z,1011.01
2017-05-31T04:02:26.400Z,1011.01
2017-05-31T04:03:35.620Z,1011.01
2017-05-31T04:04:44.666Z,1010.99
2017-05-31T04:05:53.633Z,1010.97
2017-05-31T04:07:02.601Z,1011.01
2017-05-31T04:08:11.566Z,1011.03
2017-05-31T04:09:21.099Z,1011.07
2017-05-31T04:10:30.061Z,1011.07
2017-05-31T04:11:39.021Z,1011.08
2017-05-31T04:12:47.979Z,1011.17
2017-05-31T04:13:56.936Z,1011.1
2017-05-31T04:15:06.201Z,1011.2
2017-05-31T04:16:15.162Z,1011.22
2017-05-31T04:17:24.119Z,1011.25
2017-05-31T04:18:33.126Z,1011.27
2017-05-31T04:19:42.089Z,1011.22
2017-05-31T04:20:51.298Z,1011.23
2017-05-31T04:22:00.255Z,1011.22
2017-05-31T04:23:09.221Z,1011.29
2017-05-31T04:24:18.184Z,1011.3
2017-05-31T04:25:27.151Z,1011.38
2017-05-31T04:26:36.685Z,1011.28
2017-05-31T04:27:45.654Z,1011.4
2017-05-31T04:28:54.614Z,1011.37
2017-05-31T04:30:03.571Z,1011.32
2017-05-31T04:31:12.530Z,1011.49
2017-05-31T04:32:21.884Z,1011.42
2017-05-31T04:33:30.844Z,1011.35
2017-05-31T04:34:39.801Z,1011.44
2017-05-31T04:35:48.762Z,1011.42
2017-05-31T04:36:57.728Z,1011.43
2017-05-31T04:38:06.937Z,1011.48
2017-05-31T04:39:15.897Z,1011.43
2017-05-31T04:40:24.858Z,1011.44
2017-05-31T04:41:34.152Z,1011.47
2017-05-31T04:42:43.115Z,1011.51
2017-05-31T04:43:52.325Z,1011.55
2017-05-31T04:45:01.287Z,1011.54
2017-05-31T04:46:10.252Z,1011.53
2017-05-31T04:47:19.538Z,1011.58
2017-05-31T04:48:28.542Z,1011.67
2017-05-31T04:49:37.760Z,1011.64
2017-05-31T04:50:46.724Z,1011.62
2017-05-31T04:51:56.013Z,1011.7
2017-05-31T04:53:04.974Z,1011.59
2017-05-31T04:54:13.927Z,1011.65
2017-05-31T04:55:23.188Z,1011.68
2017-05-31T04:56:32.151Z,1011.66
2017-05-31T04:57:41.110Z,1011.76
2017-05-31T04:58:50.067Z,1011.73
2017-05-31T04:59:59.029Z,1011.72
2017-05-31T05:01:08.241Z,1011.67
2017-05-31T05:02:17.197Z,1011.73
2017-05-31T05:03:26.161Z,1011.79
2017-05-31T05:04:35.124Z,1011.77
2017-05-31T05:05:44.087Z,1011.8
2017-05-31T05:06:53.299Z,1011.82
2017-05-31T05:08:02.261Z,1011.89
2017-05-31T05:09:11.223Z,1011.88
2017-05-31T05:10:20.185Z,1011.9
2017-05-31T05:11:29.160Z,1011.89
2017-05-31T05:12:38.368Z,1011.93
2017-05-31T05:13:47.332Z,1012
2017-05-31T05:14:56.297Z,1011.95
2017-05-31T05:16:05.258Z,1011.96
2017-05-31T05:17:14.217Z,1011.93
2017-05-31T05:18:23.519Z,1011.92
2017-05-31T05:19:32.481Z,1011.94
2017-05-31T05:20:41.444Z,1011.96
2017-05-31T05:21:50.403Z,1012.01
2017-05-31T05:22:59.369Z,1012
2017-05-31T05:24:08.585Z,1012.04
2017-05-31T05:25:17.545Z,1011.98
2017-05-31T05:26:26.503Z,1012.09
2017-05-31T05:27:35.790Z,1012.01
2017-05-31T05:28:44.841Z,1012.09
2017-05-31T05:29:54.101Z,1012.13
2017-05-31T05:31:03.064Z,1012.13
2017-05-31T05:32:12.026Z,1012.1
2017-05-31T05:33:21.316Z,1012.16
2017-05-31T05:34:30.327Z,1012.1
2017-05-31T05:35:39.538Z,1012.13
2017-05-31T05:36:48.500Z,1012.11
2017-05-31T05:37:57.474Z,1012.16
2017-05-31T05:39:06.430Z,1012.15
2017-05-31T05:40:15.478Z,1012.17
2017-05-31T05:41:24.690Z,1012.14
2017-05-31T05:42:33.656Z,1012.09
2017-05-31T05:43:42.616Z,1012.11
2017-05-31T05:44:51.582Z,1012.11
2017-05-31T05:46:00.542Z,1012.14
2017-05-31T05:47:09.814Z,1012.12
2017-05-31T05:48:18.785Z,1012.14
2017-05-31T05:49:27.747Z,1012.17
2017-05-31T05:50:36.707Z,1012.18
2017-05-31T05:51:45.673Z,1012.19
2017-05-31T05:52:54.930Z,1012.19
2017-05-31T05:54:03.895Z,1012.15
2017-05-31T05:55:13.413Z,1012.12
2017-05-31T05:56:22.469Z,1012.15
2017-05-31T05:57:31.478Z,1012.19
2017-05-31T05:58:40.690Z,1012.25
2017-05-31T05:59:49.680Z,1012.13
2017-05-31T06:00:58.641Z,1012.19
2017-05-31T06:02:07.619Z,1012.24
2017-05-31T06:03:16.599Z,1012.31
2017-05-31T06:04:25.860Z,1012.4
2017-05-31T06:05:34.820Z,1012.38
2017-05-31T06:06:43.833Z,1012.17
2017-05-31T06:07:52.969Z,1012.33
2017-05-31T06:09:01.985Z,1012.3
2017-05-31T06:10:11.369Z,1012.35
2017-05-31T06:11:20.385Z,1012.33
2017-05-31T06:12:29.485Z,1012.34
2017-05-31T06:13:38.780Z,1012.34
2017-05-31T06:14:47.853Z,1012.33
2017-05-31T06:15:57.318Z,1012.34
2017-05-31T06:17:06.354Z,1012.4
2017-05-31T06:18:15.773Z,1012.39
2017-05-31T06:19:24.910Z,1012.4
2017-05-31T06:20:34.211Z,1012.38
2017-05-31T06:21:43.779Z,1012.5
2017-05-31T06:22:52.852Z,1012.53
2017-05-31T06:24:01.894Z,1012.54
2017-05-31T06:25:11.377Z,1012.57
2017-05-31T06:26:20.489Z,1012.55
2017-05-31T06:27:30.332Z,1012.46
2017-05-31T06:28:39.365Z,1012.55
2017-05-31T06:29:48.344Z,1012.46
2017-05-31T06:30:57.356Z,1012.52
2017-05-31T06:32:06.366Z,1012.54
2017-05-31T06:33:15.586Z,1012.61
2017-05-31T06:34:24.548Z,1012.56
2017-05-31T06:35:33.510Z,1012.54
2017-05-31T06:36:42.611Z,1012.49
2017-05-31T06:37:51.615Z,1012.55
2017-05-31T06:39:00.826Z,1012.47
2017-05-31T06:40:09.787Z,1012.45
2017-05-31T06:41:18.780Z,1012.52
2017-05-31T06:42:27.756Z,1012.53
2017-05-31T06:43:36.715Z,1012.49
2017-05-31T06:44:45.990Z,1012.59
2017-05-31T06:45:54.954Z,1012.55
2017-05-31T06:47:04.007Z,1012.5
2017-05-31T06:48:13.018Z,1012.51
2017-05-31T06:49:22.113Z,1012.49
2017-05-31T06:50:31.464Z,1012.55
2017-05-31T06:51:40.490Z,1012.55
2017-05-31T06:52:49.612Z,1012.57
2017-05-31T06:53:58.593Z,1012.58
2017-05-31T06:55:07.552Z,1012.65
2017-05-31T06:56:16.817Z,1012.56
2017-05-31T06:57:25.781Z,1012.66
2017-05-31T06:58:34.743Z,1012.6
2017-05-31T06:59:43.708Z,1012.68
2017-05-31T07:00:52.667Z,1012.71
2017-05-31T07:02:02.123Z,1012.69
2017-05-31T07:03:11.176Z,1012.73
2017-05-31T07:04:20.233Z,1012.75
2017-05-31T07:05:29.204Z,1012.79
2017-05-31T07:06:38.485Z,1012.79
2017-05-31T07:07:47.700Z,1012.78
2017-05-31T07:08:56.665Z,1012.82
2017-05-31T07:10:05.647Z,1012.83
2017-05-31T07:11:14.616Z,1012.79
2017-05-31T07:12:23.581Z,1012.85
2017-05-31T07:13:32.848Z,1012.84
2017-05-31T07:14:42.157Z,1012.87
2017-05-31T07:15:51.122Z,1012.92
2017-05-31T07:17:00.084Z,1012.94
2017-05-31T07:18:09.055Z,1012.89
2017-05-31T07:19:18.915Z,1012.96
2017-05-31T07:20:27.887Z,1013
2017-05-31T07:21:36.970Z,1012.99
2017-05-31T07:22:46.612Z,1013.05
2017-05-31T07:24:02.845Z,1013.05
2017-05-31T07:25:23.960Z,1013.03
2017-05-31T07:26:36.444Z,1013.02
2017-05-31T07:27:57.239Z,1013.04
2017-05-31T07:29:16.149Z,1013.01
2017-05-31T07:30:26.069Z,1013.06
2017-05-31T07:31:38.943Z,1012.98
2017-05-31T07:32:49.346Z,1013.05
2017-05-31T07:34:00.239Z,1013.05
2017-05-31T07:35:13.868Z,1013.06
2017-05-31T07:36:25.428Z,1013.07
2017-05-31T07:37:34.483Z,1013.15
2017-05-31T07:38:43.447Z,1013.1
2017-05-31T07:39:52.632Z,1013.09
2017-05-31T07:41:01.846Z,1013.09
2017-05-31T07:42:10.926Z,1013.13
2017-05-31T07:43:19.887Z,1013.14
2017-05-31T07:44:28.974Z,1013.11
2017-05-31T07:45:38.033Z,1013.04
2017-05-31T07:46:47.305Z,1013.1
2017-05-31T07:47:56.266Z,1013.13
2017-05-31T07:49:05.257Z,1013.12
2017-05-31T07:50:14.555Z,1013.09
2017-05-31T07:51:23.594Z,1013.06
2017-05-31T07:52:32.979Z,1013.06
2017-05-31T07:53:42.096Z,1013.01
2017-05-31T07:54:51.220Z,1013.09
2017-05-31T07:56:00.294Z,1013.1
2017-05-31T07:57:09.321Z,1013.05
2017-05-31T07:58:18.655Z,1013.06
2017-05-31T07:59:27.881Z,1013.02
2017-05-31T08:00:36.932Z,1013.08
2017-05-31T08:01:45.966Z,1013.03
2017-05-31T08:02:54.932Z,1013.09
2017-05-31T08:04:04.147Z,1013.15
2017-05-31T08:05:13.112Z,1013.13
2017-05-31T08:06:22.162Z,1013.15
2017-05-31T08:07:31.229Z,1013.16
2017-05-31T08:08:40.184Z,1013.13
2017-05-31T08:09:49.482Z,1013.12
2017-05-31T08:10:58.482Z,1013.15
2017-05-31T08:12:07.447Z,1013.1
2017-05-31T08:13:16.413Z,1013.16
2017-05-31T08:14:25.377Z,1013.16
2017-05-31T08:15:34.832Z,1013.11
2017-05-31T08:16:43.793Z,1013.13
2017-05-31T08:17:52.839Z,1013.1
2017-05-31T08:19:01.808Z,1013.11
2017-05-31T08:20:10.777Z,1013.11
2017-05-31T08:21:20.037Z,1013.19
2017-05-31T08:22:29.203Z,1013.25
2017-05-31T08:23:38.208Z,1013.08
2017-05-31T08:24:47.591Z,1013.15
2017-05-31T08:25:56.570Z,1013.21
2017-05-31T08:27:05.783Z,1013.16
2017-05-31T08:28:14.746Z,1013.24
2017-05-31T08:29:23.707Z,1013.13
2017-05-31T08:30:32.666Z,1013.15
2017-05-31T08:31:41.627Z,1013.15
2017-05-31T08:32:50.892Z,1013.18
2017-05-31T08:33:59.864Z,1013.12
2017-05-31T08:35:09.151Z,1013.14
2017-05-31T08:36:18.110Z,1013.07
2017-05-31T08:37:27.092Z,1013.05
2017-05-31T08:38:36.627Z,1013.09
2017-05-31T08:39:45.611Z,1013.09
2017-05-31T08:40:54.567Z,1013.07
2017-05-31T08:42:03.566Z,1013.1
2017-05-31T08:43:12.857Z,1013.11
2017-05-31T08:44:22.166Z,1013.18
2017-05-31T08:45:31.201Z,1013.2
2017-05-31T08:46:40.243Z,1012.94
2017-05-31T08:47:49.733Z,1013.02
2017-05-31T08:48:58.733Z,1013.05
2017-05-31T08:50:07.987Z,1013.09
2017-05-31T08:51:16.948Z,1013.18
2017-05-31T08:52:25.908Z,1012.92
2017-05-31T08:53:34.881Z,1013.12
2017-05-31T08:54:43.847Z,1013.1
2017-05-31T08:55:53.059Z,1013.11
2017-05-31T08:57:02.020Z,1013.11
2017-05-31T08:58:11.051Z,1013.15
2017-05-31T08:59:20.035Z,1013.07
2017-05-31T09:00:28.999Z,1013.16
2017-05-31T09:01:38.219Z,1013.25
2017-05-31T09:02:47.184Z,1013.21
2017-05-31T09:03:56.195Z,1013.23
2017-05-31T09:05:05.315Z,1013.23
2017-05-31T09:06:14.280Z,1013.11
2017-05-31T09:07:23.509Z,1013.18
2017-05-31T09:08:32.466Z,1013.11
2017-05-31T09:09:41.452Z,1013.1
2017-05-31T09:10:50.415Z,1013.07
2017-05-31T09:11:59.377Z,1013.26
2017-05-31T09:13:08.645Z,1013.18
2017-05-31T09:14:17.615Z,1013.2
2017-05-31T09:15:26.598Z,1013.19
2017-05-31T09:16:35.590Z,1013.18
2017-05-31T09:17:44.578Z,1013.2
2017-05-31T09:18:53.866Z,1013.18
2017-05-31T09:20:02.854Z,1013.31
2017-05-31T09:21:11.836Z,1013.14
2017-05-31T09:22:20.928Z,1013.27
2017-05-31T09:23:30.047Z,1013.2
2017-05-31T09:24:39.331Z,1013.27
2017-05-31T09:25:48.408Z,1013.29
2017-05-31T09:26:57.386Z,1013.26
2017-05-31T09:28:06.375Z,1013.24
2017-05-31T09:29:15.368Z,1013.25
2017-05-31T09:30:24.603Z,1013.28
2017-05-31T09:31:33.597Z,1013.29
2017-05-31T09:32:42.580Z,1013.29
2017-05-31T09:33:51.570Z,1013.33
2017-05-31T09:35:00.554Z,1013.33
2017-05-31T09:36:09.853Z,1013.24
2017-05-31T09:37:18.820Z,1013.21
2017-05-31T09:38:27.786Z,1013.25
2017-05-31T09:39:36.752Z,1013.32
2017-05-31T09:40:45.796Z,1013.32
2017-05-31T09:41:55.395Z,1013.28
2017-05-31T09:43:04.425Z,1013.36
2017-05-31T09:44:13.414Z,1013.38
2017-05-31T09:45:22.407Z,1013.4
2017-05-31T09:46:31.483Z,1013.42
2017-05-31T09:47:40.722Z,1013.35
2017-05-31T09:48:49.715Z,1013.39
2017-05-31T09:49:58.704Z,1013.45
2017-05-31T09:51:07.692Z,1013.43
2017-05-31T09:52:16.684Z,1013.42
2017-05-31T09:53:25.922Z,1013.42
2017-05-31T09:54:34.907Z,1013.4
2017-05-31T09:55:43.947Z,1013.46
2017-05-31T09:56:52.946Z,1013.43
2017-05-31T09:58:02.269Z,1013.53
2017-05-31T09:59:11.558Z,1013.44
2017-05-31T10:00:20.544Z,1013.48
2017-05-31T10:01:29.639Z,1013.47
2017-05-31T10:02:38.623Z,1013.41
2017-05-31T10:03:47.613Z,1013.47
2017-05-31T10:04:56.843Z,1013.44
2017-05-31T10:06:05.924Z,1013.39
2017-05-31T10:07:14.888Z,1013.43
2017-05-31T10:08:23.855Z,1013.44
2017-05-31T10:09:32.813Z,1013.47
2017-05-31T10:10:42.029Z,1013.47
2017-05-31T10:11:50.989Z,1013.43
2017-05-31T10:13:00.225Z,1013.46
2017-05-31T10:14:09.754Z,1013.43
2017-05-31T10:15:19.066Z,1013.5
2017-05-31T10:16:28.329Z,1013.28
2017-05-31T10:17:37.290Z,1013.38
2017-05-31T10:18:46.256Z,1013.35
2017-05-31T10:19:55.224Z,1013.42
2017-05-31T10:21:04.185Z,1013.33
2017-05-31T10:22:13.403Z,1013.42
2017-05-31T10:23:22.374Z,1013.44
2017-05-31T10:24:31.639Z,1013.44
2017-05-31T10:25:42.768Z,1013.4
2017-05-31T10:26:51.850Z,1013.39
2017-05-31T10:28:01.121Z,1013.33
2017-05-31T10:29:10.087Z,1013.34
2017-05-31T10:30:19.057Z,1013.23
2017-05-31T10:31:28.021Z,1013.3
2017-05-31T10:32:36.997Z,1013.36
2017-05-31T10:33:46.211Z,1013.22
2017-05-31T10:34:55.179Z,1013.29
2017-05-31T10:36:04.141Z,1013.35
2017-05-31T10:37:13.108Z,1013.3
2017-05-31T10:38:22.075Z,1013.35
2017-05-31T10:39:31.377Z,1013.35
2017-05-31T10:40:40.347Z,1013.32
2017-05-31T10:41:49.313Z,1013.34
2017-05-31T10:42:58.271Z,1013.33
2017-05-31T10:44:07.230Z,1013.27
2017-05-31T10:45:16.454Z,1013.25
2017-05-31T10:46:25.418Z,1013.33
2017-05-31T10:47:34.393Z,1013.36
2017-05-31T10:48:43.356Z,1013.3
2017-05-31T10:49:52.312Z,1013.31
2017-05-31T10:51:01.522Z,1013.26
2017-05-31T10:52:10.491Z,1013.21
2017-05-31T10:53:19.458Z,1013.26
2017-05-31T10:54:28.427Z,1013.35
2017-05-31T10:55:37.394Z,1013.3
2017-05-31T10:56:46.664Z,1013.31
2017-05-31T10:57:55.630Z,1013.39
2017-05-31T10:59:04.924Z,1013.37
2017-05-31T11:00:13.885Z,1013.37
2017-05-31T11:01:22.857Z,1013.3
2017-05-31T11:02:32.096Z,1013.34
2017-05-31T11:03:41.064Z,1013.33
2017-05-31T11:04:50.031Z,1013.35
2017-05-31T11:05:59.007Z,1013.32
2017-05-31T11:07:07.973Z,1013.33
2017-05-31T11:08:17.186Z,1013.42
2017-05-31T11:09:26.153Z,1013.45
2017-05-31T11:10:35.124Z,1013.49
2017-05-31T11:11:44.118Z,1013.41
2017-05-31T11:12:53.115Z,1013.45
2017-05-31T11:14:02.379Z,1013.46
2017-05-31T11:15:11.352Z,1013.51
2017-05-31T11:16:20.318Z,1013.46
2017-05-31T11:17:29.283Z,1013.37
2017-05-31T11:18:38.239Z,1013.38
2017-05-31T11:19:47.450Z,1013.41
2017-05-31T11:20:56.414Z,1013.39
2017-05-31T11:22:05.375Z,1013.45
2017-05-31T11:23:14.342Z,1013.39
2017-05-31T11:24:23.314Z,1013.34
2017-05-31T11:25:32.584Z,1013.35
2017-05-31T11:26:41.547Z,1013.31
2017-05-31T11:27:50.515Z,1013.4
2017-05-31T11:28:59.483Z,1013.43
2017-05-31T11:30:08.536Z,1013.3
2017-05-31T11:31:17.764Z,1013.32
2017-05-31T11:32:26.727Z,1013.37
2017-05-31T11:33:35.689Z,1013.27
2017-05-31T11:34:44.652Z,1013.27
2017-05-31T11:35:53.620Z,1013.37
2017-05-31T11:37:02.886Z,1013.27
2017-05-31T11:38:11.846Z,1013.25
2017-05-31T11:39:20.810Z,1013.24
2017-05-31T11:40:29.769Z,1013.21
2017-05-31T11:41:38.732Z,1013.27
2017-05-31T11:42:47.951Z,1013.22
2017-05-31T11:43:56.913Z,1013.19
2017-05-31T11:45:05.873Z,1013.16
2017-05-31T11:46:15.167Z,1013.2
2017-05-31T11:47:24.130Z,1013.13
2017-05-31T11:48:33.395Z,1013.26
2017-05-31T11:49:42.355Z,1013.29
2017-05-31T11:50:51.316Z,1013.3
2017-05-31T11:52:00.277Z,1013.3
2017-05-31T11:53:09.238Z,1013.26
2017-05-31T11:54:18.460Z,1013.3
2017-05-31T11:55:27.427Z,1013.26
2017-05-31T11:56:36.396Z,1013.21
2017-05-31T11:57:45.357Z,1013.25
2017-05-31T11:58:54.325Z,1013.31
2017-05-31T12:00:03.540Z,1013.22
2017-05-31T12:01:12.506Z,1013.22
2017-05-31T12:02:21.470Z,1013.26
2017-05-31T12:03:30.436Z,1013.35
2017-05-31T12:04:39.402Z,1013.28
2017-05-31T12:05:48.616Z,1013.31
2017-05-31T12:06:57.580Z,1013.35
2017-05-31T12:08:06.545Z,1013.37
2017-05-31T12:09:15.508Z,1013.27
2017-05-31T12:10:24.808Z,1013.26
2017-05-31T12:11:34.021Z,1013.17
2017-05-31T12:12:42.987Z,1013.09
2017-05-31T12:13:51.962Z,1013.21
2017-05-31T12:15:00.920Z,1013.19
2017-05-31T12:16:09.885Z,1013.18
2017-05-31T12:17:19.150Z,1013.27
2017-05-31T12:18:28.122Z,1013.16
2017-05-31T12:19:37.086Z,1013.2
2017-05-31T12:20:46.046Z,1013.27
2017-05-31T12:21:55.010Z,1013.24
2017-05-31T12:23:04.272Z,1013.24
2017-05-31T12:24:13.236Z,1013.29
2017-05-31T12:25:22.225Z,1013.34
2017-05-31T12:26:31.190Z,1013.32
2017-05-31T12:27:40.157Z,1013.33
2017-05-31T12:28:49.378Z,1013.35
2017-05-31T12:29:58.347Z,1013.3
2017-05-31T12:31:07.306Z,1013.28
2017-05-31T12:32:16.335Z,1013.32
2017-05-31T12:33:25.309Z,1013.25
2017-05-31T12:34:34.523Z,1013.32
2017-05-31T12:35:43.487Z,1013.32
2017-05-31T12:36:52.456Z,1013.21
2017-05-31T12:38:01.421Z,1013.35
2017-05-31T12:39:10.382Z,1013.24
2017-05-31T12:40:19.596Z,1013.34
2017-05-31T12:41:28.562Z,1013.36
2017-05-31T12:42:37.528Z,1013.4
2017-05-31T12:43:46.493Z,1013.32
2017-05-31T12:44:55.461Z,1013.36
2017-05-31T12:46:04.743Z,1013.31
2017-05-31T12:47:13.700Z,1013.31
2017-05-31T12:48:22.668Z,1013.26
2017-05-31T12:49:31.635Z,1013.29
2017-05-31T12:50:40.919Z,1013.3
2017-05-31T12:51:50.186Z,1013.38
2017-05-31T12:52:59.145Z,1013.32
2017-05-31T12:54:08.109Z,1013.38
2017-05-31T12:55:17.072Z,1013.33
2017-05-31T12:56:26.042Z,1013.34
2017-05-31T12:57:35.255Z,1013.3
2017-05-31T12:58:44.217Z,1013.22
2017-05-31T12:59:53.182Z,1013.29
2017-05-31T13:01:02.145Z,1013.26
2017-05-31T13:02:11.103Z,1013.27
2017-05-31T13:03:20.321Z,1013.28
2017-05-31T13:04:29.288Z,1013.3
2017-05-31T13:05:38.341Z,1013.34
2017-05-31T13:06:47.301Z,1013.23
2017-05-31T13:07:56.264Z,1013.24
2017-05-31T13:09:05.569Z,1013.2
2017-05-31T13:10:14.533Z,1013.18
2017-05-31T13:11:23.500Z,1013.32
2017-05-31T13:12:32.467Z,1013.37
2017-05-31T13:13:41.433Z,1013.29
2017-05-31T13:14:50.693Z,1013.23
2017-05-31T13:15:59.652Z,1013.31
2017-05-31T13:17:08.617Z,1013.28
2017-05-31T13:18:17.588Z,1013.21
2017-05-31T13:19:26.881Z,1013.37
2017-05-31T13:20:36.093Z,1013.29
2017-05-31T13:21:45.149Z,1013.24
2017-05-31T13:22:54.112Z,1013.29
2017-05-31T13:24:03.076Z,1013.28
2017-05-31T13:25:12.048Z,1013.26
2017-05-31T13:26:21.277Z,1013.34
2017-05-31T13:27:30.243Z,1013.32
2017-05-31T13:28:39.209Z,1013.26
2017-05-31T13:29:48.178Z,1013.27
2017-05-31T13:30:57.144Z,1013.2
2017-05-31T13:32:06.357Z,1013.24
2017-05-31T13:33:15.315Z,1013.2
2017-05-31T13:34:24.373Z,1013.26
2017-05-31T13:35:33.736Z,1013.28
2017-05-31T13:36:43.034Z,1013.25
2017-05-31T13:37:52.333Z,1013.28
2017-05-31T13:39:01.293Z,1013.29
2017-05-31T13:40:10.370Z,1013.09
2017-05-31T13:41:19.490Z,1013.14
2017-05-31T13:42:28.608Z,1013.35
2017-05-31T13:43:37.978Z,1013.34
2017-05-31T13:44:46.983Z,1013.4
2017-05-31T13:45:56.024Z,1013.39
2017-05-31T13:47:05.295Z,1013.3
2017-05-31T13:48:14.643Z,1013.25
2017-05-31T13:49:24.246Z,1013.27
2017-05-31T13:50:33.630Z,1013.33
2017-05-31T13:51:42.709Z,1013.29
2017-05-31T13:52:51.672Z,1013.31
2017-05-31T13:54:00.642Z,1013.34
2017-05-31T13:55:09.862Z,1013.29
2017-05-31T13:56:18.826Z,1013.38
2017-05-31T13:57:27.793Z,1013.3
2017-05-31T13:58:36.761Z,1013.36
2017-05-31T13:59:45.723Z,1013.35